Time;durP1;ratioP1;P1;durP2;ratioP2;P2;SDS_P1;SDS_P2;PMS_P1;PMS_P2;Temp;Humidity;BMP_temperature;BMP_pressure;BME280_temperature;BME280_humidity;BME280_pressure;Samples;Min_cycle;Max_cycle;Signal;HPM_P1;HPM_P2
2024/04/04 00:02:26;;;;;;;17.88;4.88;;;;;;;8.99;100.00;100501.97;10460545;28;20433;-71
2024/04/04 00:07:27;;;;;;;9.00;3.80;;;;;;;8.95;100.00;100500.72;10459204;28;20049;-71
2024/04/04 00:12:27;;;;;;;13.60;3.15;;;;;;;8.90;100.00;100494.22;10474909;28;20033;-71
2024/04/04 00:17:28;;;;;;;8.70;2.20;;;;;;;8.70;100.00;100481.41;10441216;28;20045;-70
2024/04/04 00:22:28;;;;;;;13.57;3.25;;;;;;;8.89;100.00;100482.59;10458451;28;20048;-70
2024/04/04 00:27:28;;;;;;;11.65;3.60;;;;;;;9.19;100.00;100463.44;10458106;28;20079;-70
2024/04/04 00:32:29;;;;;;;7.22;3.25;;;;;;;9.40;100.00;100465.25;10457261;28;20035;-70
2024/04/04 00:37:29;;;;;;;6.50;2.78;;;;;;;9.50;100.00;100465.69;10475152;28;20029;-71
2024/04/04 00:42:31;;;;;;;14.63;3.70;;;;;;;9.57;100.00;100463.03;10457693;28;20448;-70
2024/04/04 00:47:31;;;;;;;11.73;3.97;;;;;;;9.59;100.00;100445.56;10457765;28;20028;-71
2024/04/04 00:52:32;;;;;;;11.98;3.35;;;;;;;9.63;100.00;100437.88;10458149;28;20041;-70
2024/04/04 00:57:32;;;;;;;11.30;3.40;;;;;;;9.66;100.00;100448.28;10455932;28;20033;-70
2024/04/04 01:02:33;;;;;;;10.50;2.63;;;;;;;9.73;100.00;100430.22;10456955;28;20033;-70
2024/04/04 01:07:33;;;;;;;7.18;2.60;;;;;;;9.75;100.00;100422.75;10456606;28;20068;-71
2024/04/04 01:12:34;;;;;;;21.38;4.47;;;;;;;9.82;100.00;100428.16;10455943;28;20040;-72
2024/04/04 01:17:35;;;;;;;10.30;3.42;;;;;;;9.80;100.00;100412.16;10458386;28;20041;-70
2024/04/04 01:22:35;;;;;;;3.75;2.80;;;;;;;9.88;100.00;100411.94;10458077;28;20029;-70
2024/04/04 01:27:35;;;;;;;8.85;2.95;;;;;;;9.98;100.00;100404.28;10457027;28;20052;-71
2024/04/04 01:32:36;;;;;;;7.10;2.17;;;;;;;10.00;100.00;100395.97;10440697;28;20094;-70
2024/04/04 01:37:36;;;;;;;13.77;2.67;;;;;;;9.92;100.00;100388.91;10455768;28;20064;-71
2024/04/04 01:42:37;;;;;;;8.68;2.15;;;;;;;9.90;100.00;100385.53;10470914;28;20395;-70
2024/04/04 01:47:37;;;;;;;6.82;2.30;;;;;;;10.02;100.00;100383.91;10455155;28;20036;-72
2024/04/04 01:52:37;;;;;;;6.75;2.72;;;;;;;10.05;100.00;100374.56;10456972;28;20461;-71
2024/04/04 01:57:38;;;;;;;5.95;2.22;;;;;;;10.16;100.00;100368.50;10455227;28;20052;-71
2024/04/04 02:02:38;;;;;;;9.25;2.55;;;;;;;10.13;100.00;100354.56;10455832;28;20037;-72
2024/04/04 02:07:38;;;;;;;14.73;2.78;;;;;;;9.90;100.00;100350.38;10453963;28;20031;-72
2024/04/04 02:12:41;;;;;;;8.32;2.38;;;;;;;9.87;100.00;100339.97;10457151;28;20043;-73
2024/04/04 02:17:41;;;;;;;14.98;3.15;;;;;;;9.93;100.00;100341.88;10456516;28;20049;-72
2024/04/04 02:22:41;;;;;;;8.65;2.67;;;;;;;9.82;100.00;100323.53;10454224;28;20033;-74
2024/04/04 02:27:42;;;;;;;5.55;2.50;;;;;;;9.72;100.00;100312.28;10455059;28;20032;-73
2024/04/04 02:32:42;;;;;;;2.88;2.63;;;;;;;9.67;100.00;100312.94;10452744;28;20549;-72
2024/04/04 02:37:43;;;;;;;11.88;3.28;;;;;;;9.59;100.00;100291.47;10454361;28;20067;-73
2024/04/04 02:42:43;;;;;;;8.02;2.83;;;;;;;9.58;100.00;100280.91;10454957;28;20029;-73
2024/04/04 02:47:44;;;;;;;11.10;4.55;;;;;;;9.64;100.00;100277.38;10454983;28;20503;-72
2024/04/04 02:52:44;;;;;;;17.30;3.78;;;;;;;9.66;100.00;100272.56;10458545;28;20040;-74
2024/04/04 02:57:45;;;;;;;0.30;0.30;;;;;;;9.68;100.00;100270.50;10462735;28;20116;-74
2024/04/04 03:02:45;;;;;;;0.73;0.73;;;;;;;9.63;100.00;100248.66;10464289;28;20032;-74
2024/04/04 03:07:46;;;;;;;0.40;0.40;;;;;;;9.63;100.00;100243.25;10460883;28;20353;-74
2024/04/04 03:12:49;;;;;;;0.50;0.50;;;;;;;9.70;100.00;100235.97;10460986;28;20043;-76
2024/04/04 03:17:50;;;;;;;0.43;0.43;;;;;;;9.71;100.00;100232.25;10462211;28;20116;-76
2024/04/04 03:22:50;;;;;;;0.40;0.40;;;;;;;9.69;100.00;100224.31;10460750;28;20522;-75
2024/04/04 03:27:50;;;;;;;2.47;2.17;;;;;;;9.74;100.00;100221.00;10461424;28;20029;-75
2024/04/04 03:32:52;;;;;;;0.35;0.35;;;;;;;9.81;100.00;100212.88;10462771;28;20033;-76
2024/04/04 03:37:52;;;;;;;0.63;0.63;;;;;;;9.79;100.00;100204.97;10464357;28;20116;-75
2024/04/04 03:42:53;;;;;;;0.43;0.43;;;;;;;9.73;100.00;100195.84;10459353;28;20040;-77
2024/04/04 03:47:53;;;;;;;0.35;0.35;;;;;;;9.82;100.00;100187.50;10462873;28;20033;-77
2024/04/04 03:52:54;;;;;;;0.50;0.50;;;;;;;9.90;100.00;100166.50;10464202;28;20025;-77
2024/04/04 03:57:54;;;;;;;3.60;2.67;;;;;;;9.87;100.00;100157.97;10466489;28;20037;-79
2024/04/04 04:02:54;;;;;;;0.40;0.40;;;;;;;9.88;100.00;100108.25;10464472;28;20528;-78
2024/04/04 04:07:56;;;;;;;0.43;0.43;;;;;;;9.90;100.00;100115.09;10465379;28;20025;-77
2024/04/04 04:12:57;;;;;;;0.40;0.40;;;;;;;9.98;100.00;100120.25;10466632;28;20392;-77
2024/04/04 04:17:57;;;;;;;0.38;0.38;;;;;;;10.07;100.00;100115.47;10456032;28;20453;-79
2024/04/04 04:22:57;;;;;;;1.30;1.30;;;;;;;10.13;100.00;100100.25;10488572;28;20051;-78
2024/04/04 04:27:58;;;;;;;1.25;1.25;;;;;;;10.21;100.00;100100.00;10488524;28;20039;-80
2024/04/04 04:32:58;;;;;;;0.50;0.50;;;;;;;10.34;100.00;100115.38;10472694;28;20111;-78
2024/04/04 04:37:59;;;;;;;0.45;0.45;;;;;;;10.39;100.00;100119.09;10466323;28;20041;-77
2024/04/04 04:42:59;;;;;;;1.40;1.30;;;;;;;10.42;100.00;100098.91;10468478;28;20024;-77
2024/04/04 04:48:00;;;;;;;0.73;0.73;;;;;;;10.40;100.00;100109.97;10472849;28;20033;-78
2024/04/04 04:53:00;;;;;;;0.50;0.50;;;;;;;10.52;100.00;100095.72;10471631;28;20087;-78
2024/04/04 04:58:00;;;;;;;0.35;0.35;;;;;;;10.44;100.00;100083.28;10471932;28;20464;-79
2024/04/04 05:03:01;;;;;;;0.82;0.82;;;;;;;10.55;100.00;100076.34;10473133;28;20044;-77
2024/04/04 05:08:02;;;;;;;2.75;1.75;;;;;;;10.51;100.00;100072.41;10481046;28;20086;-78
2024/04/04 05:13:02;;;;;;;0.50;0.50;;;;;;;10.52;100.00;100074.06;10478805;28;20037;-78
2024/04/04 05:18:03;;;;;;;1.58;1.48;;;;;;;10.58;100.00;100073.19;10463583;28;20053;-80
2024/04/04 05:23:03;;;;;;;0.40;0.40;;;;;;;10.58;100.00;100067.78;10459081;28;20164;-75
2024/04/04 05:28:04;;;;;;;0.50;0.50;;;;;;;10.57;100.00;100052.59;10457844;28;20029;-76
2024/04/04 05:33:05;;;;;;;1.08;1.08;;;;;;;10.64;100.00;100047.97;10460147;28;20021;-79
2024/04/04 05:38:05;;;;;;;0.40;0.40;;;;;;;10.74;100.00;100056.44;10475485;28;20090;-80
2024/04/04 05:43:05;;;;;;;0.30;0.30;;;;;;;10.75;100.00;100065.38;10474936;28;20112;-79
2024/04/04 05:48:06;;;;;;;0.90;0.90;;;;;;;10.80;100.00;100062.84;10465643;28;20036;-78
2024/04/04 05:53:06;;;;;;;0.40;0.40;;;;;;;10.83;100.00;100059.69;10461647;28;20071;-77
2024/04/04 05:58:07;;;;;;;0.50;0.50;;;;;;;10.90;100.00;100072.13;10463249;28;20032;-80
2024/04/04 06:03:07;;;;;;;0.77;0.77;;;;;;;10.89;100.00;100073.19;10486274;28;20071;-79
2024/04/04 06:08:08;;;;;;;0.50;0.50;;;;;;;11.08;100.00;100081.41;10481659;28;20036;-79
2024/04/04 06:13:09;;;;;;;0.40;0.40;;;;;;;11.14;100.00;100064.25;10481197;28;20044;-81
2024/04/04 06:18:09;;;;;;;0.40;0.40;;;;;;;11.21;100.00;100075.84;10489480;28;20076;-81
2024/04/04 06:23:09;;;;;;;0.75;0.75;;;;;;;11.25;100.00;100068.94;10486307;28;20028;-81
2024/04/04 06:28:10;;;;;;;0.50;0.50;;;;;;;11.30;100.00;100065.56;10473193;28;20364;-81
2024/04/04 06:33:10;;;;;;;0.80;0.80;;;;;;;11.37;100.00;100052.78;10471495;28;20033;-79
2024/04/04 06:38:11;;;;;;;0.50;0.50;;;;;;;11.46;100.00;100064.16;10470030;28;20039;-80
2024/04/04 06:43:11;;;;;;;1.35;1.35;;;;;;;11.52;100.00;100053.25;10472569;28;20033;-80
2024/04/04 06:48:12;;;;;;;0.40;0.40;;;;;;;11.48;100.00;100049.31;10470583;28;20021;-79
2024/04/04 06:53:12;;;;;;;0.90;0.90;;;;;;;11.55;100.00;100051.94;10471925;28;20040;-79
2024/04/04 06:58:13;;;;;;;0.40;0.40;;;;;;;11.57;100.00;100056.09;10471409;28;20041;-79
2024/04/04 07:03:13;;;;;;;2.83;2.35;;;;;;;11.60;100.00;100050.22;10470738;28;20082;-80
2024/04/04 07:08:14;;;;;;;0.40;0.40;;;;;;;11.59;100.00;100037.75;10486208;28;20065;-79
2024/04/04 07:13:15;;;;;;;0.50;0.50;;;;;;;11.59;100.00;100031.50;10471266;28;20049;-79
2024/04/04 07:18:15;;;;;;;0.55;0.55;;;;;;;11.61;100.00;100045.63;10468769;28;20079;-79
2024/04/04 07:23:16;;;;;;;0.60;0.60;;;;;;;11.68;100.00;100040.13;10470126;28;20041;-79
2024/04/04 07:28:16;;;;;;;1.88;1.88;;;;;;;11.66;100.00;100058.53;10469159;28;20444;-79
2024/04/04 07:33:17;;;;;;;0.50;0.50;;;;;;;11.63;100.00;100076.06;10469225;28;20089;-79
2024/04/04 07:38:17;;;;;;;0.30;0.30;;;;;;;11.69;100.00;100056.19;10477512;28;20033;-81
2024/04/04 07:43:18;;;;;;;0.47;0.47;;;;;;;11.85;100.00;100057.50;10507545;28;20032;-79
2024/04/04 07:48:18;;;;;;;0.60;0.60;;;;;;;11.83;100.00;100063.13;10495940;28;20032;-81
2024/04/04 07:53:19;;;;;;;0.40;0.40;;;;;;;11.77;100.00;100077.59;10489936;28;20028;-81
2024/04/04 07:58:19;;;;;;;1.98;1.95;;;;;;;11.70;100.00;100070.59;10493038;28;20036;-79
2024/04/04 08:03:20;;;;;;;3.30;2.85;;;;;;;11.60;100.00;100069.22;10485893;28;20025;-82
2024/04/04 08:08:21;;;;;;;0.40;0.40;;;;;;;11.64;100.00;100075.00;10474590;28;20032;-82
2024/04/04 08:13:21;;;;;;;0.43;0.43;;;;;;;11.76;100.00;100078.66;10471691;28;20120;-79
2024/04/04 08:18:22;;;;;;;0.50;0.50;;;;;;;11.84;100.00;100072.13;10469539;28;20072;-80
2024/04/04 08:23:23;;;;;;;0.50;0.50;;;;;;;11.99;100.00;100060.88;10467306;28;20051;-82
2024/04/04 08:28:24;;;;;;;0.70;0.70;;;;;;;12.55;100.00;100055.13;10465883;28;20075;-78
2024/04/04 08:33:25;;;;;;;0.60;0.60;;;;;;;12.71;100.00;100072.66;10465635;28;20055;-80
2024/04/04 08:38:25;;;;;;;0.60;0.60;;;;;;;12.23;100.00;100070.81;10465297;28;20095;-78
2024/04/04 08:43:27;;;;;;;10.55;3.90;;;;;;;12.22;100.00;100069.16;10448463;28;20032;-75
2024/04/04 08:48:27;;;;;;;4.05;3.20;;;;;;;12.22;100.00;100062.88;10447280;28;20161;-74
2024/04/04 08:53:27;;;;;;;12.13;3.55;;;;;;;12.37;100.00;100087.75;10444631;28;20155;-76
2024/04/04 08:58:28;;;;;;;22.25;5.55;;;;;;;13.96;100.00;100100.66;10463513;28;20021;-74
2024/04/04 09:03:29;;;;;;;12.40;3.50;;;;;;;13.82;100.00;100104.72;10462695;28;20036;-74
2024/04/04 09:08:30;;;;;;;10.18;3.45;;;;;;;14.01;100.00;100111.66;10460006;28;20032;-72
2024/04/04 09:13:30;;;;;;;6.45;3.17;;;;;;;13.54;100.00;100117.16;10458279;28;20032;-72
2024/04/04 09:18:31;;;;;;;3.60;2.50;;;;;;;14.09;100.00;100115.91;10456627;28;20110;-72
2024/04/04 09:23:31;;;;;;;13.23;3.45;;;;;;;14.37;100.00;100123.31;10456993;28;20045;-70
2024/04/04 09:28:31;;;;;;;13.10;5.30;;;;;;;14.03;100.00;100130.47;10456050;28;20547;-72
2024/04/04 09:33:32;;;;;;;13.23;6.00;;;;;;;14.80;100.00;100111.06;10438859;28;20017;-71
2024/04/04 09:38:32;;;;;;;14.23;3.78;;;;;;;15.07;100.00;100152.19;10456573;28;20033;-70
2024/04/04 09:43:33;;;;;;;10.23;3.65;;;;;;;14.82;100.00;100153.38;10456884;28;20380;-72
2024/04/04 09:48:33;;;;;;;19.50;3.97;;;;;;;14.90;100.00;100173.97;10457549;28;20025;-71
2024/04/04 09:53:36;;;;;;;9.52;3.60;;;;;;;15.83;100.00;100166.28;10456041;28;20067;-72
2024/04/04 09:58:36;;;;;;;14.38;4.70;;;;;;;17.11;100.00;100184.31;10454141;28;20450;-72
2024/04/04 10:03:37;;;;;;;9.02;4.05;;;;;;;17.48;100.00;100184.38;10455803;28;20064;-71
2024/04/04 10:08:37;;;;;;;18.17;4.15;;;;;;;17.81;100.00;100194.28;10455674;28;20033;-73
2024/04/04 10:13:38;;;;;;;18.88;3.42;;;;;;;17.61;100.00;100205.00;10455606;28;20105;-71
2024/04/04 10:18:38;;;;;;;17.73;4.07;;;;;;;17.54;100.00;100210.72;10438524;28;20052;-70
2024/04/04 10:23:38;;;;;;;6.68;4.60;;;;;;;16.93;100.00;100191.78;10437878;28;20415;-71
2024/04/04 10:28:43;;;;;;;10.13;4.20;;;;;;;16.58;100.00;100226.88;10436706;28;20052;-71
2024/04/04 10:33:44;;;;;;;19.13;5.40;;;;;;;17.48;100.00;100217.22;10453090;28;20029;-72
2024/04/04 10:38:44;;;;;;;12.70;5.05;;;;;;;17.24;100.00;100226.84;10454682;28;20041;-70
2024/04/04 10:43:44;;;;;;;13.85;4.95;;;;;;;17.56;100.00;100222.22;10454844;28;20048;-71
2024/04/04 10:48:45;;;;;;;23.55;5.38;;;;;;;17.00;100.00;100259.13;10470399;28;20039;-71
2024/04/04 10:53:46;;;;;;;14.18;4.85;;;;;;;16.88;100.00;100253.78;10435747;28;20048;-70
2024/04/04 10:58:46;;;;;;;10.35;3.22;;;;;;;16.91;100.00;100256.00;10452517;28;20021;-71
2024/04/04 11:03:47;;;;;;;7.75;5.53;;;;;;;17.90;100.00;100257.63;10454600;28;20178;-71
2024/04/04 11:08:52;;;;;;;22.17;4.93;;;;;;;16.79;100.00;100279.94;10437020;28;20100;-69
2024/04/04 11:13:54;;;;;;;26.38;7.10;;;;;;;15.92;100.00;100271.28;10458487;28;20032;-70
2024/04/04 11:18:54;;;;;;;21.13;6.15;;;;;;;15.25;100.00;100296.53;10460622;28;20388;-71
2024/04/04 11:23:54;;;;;;;21.58;6.82;;;;;;;15.49;100.00;100294.53;10461355;28;20111;-70
2024/04/04 11:28:55;;;;;;;30.30;7.10;;;;;;;17.03;100.00;100289.53;10460532;28;20374;-70
2024/04/04 11:33:56;;;;;;;21.25;5.47;;;;;;;17.99;100.00;100299.03;10461427;28;20032;-70
2024/04/04 11:38:56;;;;;;;15.63;6.50;;;;;;;17.74;100.00;100294.97;10462328;28;20086;-70
2024/04/04 11:43:57;;;;;;;11.30;6.47;;;;;;;17.67;100.00;100305.28;10464255;28;20052;-72
2024/04/04 11:48:57;;;;;;;21.92;4.93;;;;;;;18.08;100.00;100320.19;10464336;28;20028;-71
2024/04/04 11:53:58;;;;;;;13.82;5.65;;;;;;;18.67;100.00;100318.44;10462788;28;20087;-70
2024/04/04 11:58:58;;;;;;;19.05;7.03;;;;;;;18.97;100.00;100329.59;10463753;28;20032;-71
2024/04/04 12:03:59;;;;;;;22.50;5.95;;;;;;;19.27;100.00;100326.16;10460922;28;20495;-70
2024/04/04 12:08:59;;;;;;;15.80;6.97;;;;;;;19.23;100.00;100332.44;10462084;28;20090;-71
2024/04/04 12:14:00;;;;;;;22.17;7.97;;;;;;;18.55;100.00;100335.09;10460266;28;20036;-69
2024/04/04 12:24:20;;;;;;;14.63;7.80;;;;;;;18.25;100.00;100342.00;10463321;28;20036;-71
2024/04/04 12:29:20;;;;;;;21.02;9.13;;;;;;;18.38;100.00;100342.63;10462954;28;20029;-71
2024/04/04 12:34:21;;;;;;;42.42;9.38;;;;;;;18.42;100.00;100339.09;10459206;28;20033;-72
2024/04/04 12:39:21;;;;;;;27.23;11.13;;;;;;;18.16;100.00;100362.75;10459078;28;20040;-70
2024/04/04 12:44:22;;;;;;;37.50;9.77;;;;;;;17.47;100.00;100363.41;10457302;28;20048;-70
2024/04/04 12:49:22;;;;;;;41.85;9.02;;;;;;;17.21;100.00;100354.06;10473815;28;20064;-72
2024/04/04 12:54:22;;;;;;;28.55;9.23;;;;;;;16.73;100.00;100374.72;10475587;28;20029;-70
2024/04/04 12:59:23;;;;;;;20.70;7.43;;;;;;;16.32;100.00;100373.25;10457717;28;20044;-70
2024/04/04 13:04:23;;;;;;;16.40;7.03;;;;;;;16.14;100.00;100375.13;10457759;28;20029;-70
2024/04/04 13:09:24;;;;;;;32.22;8.80;;;;;;;16.19;100.00;100371.69;10456916;28;20025;-71
2024/04/04 13:14:24;;;;;;;19.48;7.40;;;;;;;17.02;100.00;100393.75;10457058;28;20032;-70
2024/04/04 13:19:24;;;;;;;31.40;9.95;;;;;;;16.14;100.00;100390.69;10456110;28;20072;-70
2024/04/04 13:24:25;;;;;;;22.85;7.32;;;;;;;15.97;100.00;100394.25;10456299;28;20059;-71
2024/04/04 13:29:26;;;;;;;29.25;8.57;;;;;;;15.71;100.00;100384.75;10457071;28;20040;-70
2024/04/04 13:34:26;;;;;;;15.70;7.90;;;;;;;16.40;100.00;100402.88;10455748;28;20033;-70
2024/04/04 13:39:26;;;;;;;28.38;10.27;;;;;;;16.10;100.00;100419.59;10454249;28;20051;-72
2024/04/04 13:44:27;;;;;;;26.00;9.70;;;;;;;15.94;100.00;100418.47;10455522;28;20067;-70
2024/04/04 13:49:27;;;;;;;30.25;9.98;;;;;;;16.19;100.00;100432.59;10455258;28;20029;-71
2024/04/04 13:54:28;;;;;;;35.95;13.07;;;;;;;15.83;100.00;100422.94;10453537;28;20468;-71
2024/04/04 13:59:28;;;;;;;32.28;10.70;;;;;;;15.31;100.00;100445.56;10456983;28;20021;-70
2024/04/04 14:04:29;;;;;;;38.05;11.68;;;;;;;15.15;100.00;100438.13;10455529;28;20070;-70
2024/04/04 14:09:32;;;;;;;31.27;10.63;;;;;;;15.02;100.00;100441.94;10455332;28;20349;-70
2024/04/04 14:14:32;;;;;;;21.65;9.52;;;;;;;15.31;100.00;100450.22;10470079;28;20025;-70
2024/04/04 14:19:33;;;;;;;45.15;12.65;;;;;;;15.78;100.00;100444.66;10455304;28;20060;-71
2024/04/04 14:24:36;;;;;;;33.55;9.70;;;;;;;16.14;100.00;100454.34;10452717;28;20453;-71
2024/04/04 14:29:36;;;;;;;44.90;9.82;;;;;;;15.77;100.00;100456.66;10454622;28;20029;-70
2024/04/04 14:34:37;;;;;;;37.03;11.32;;;;;;;15.41;100.00;100444.13;10454884;28;20427;-71
2024/04/04 14:39:37;;;;;;;44.05;13.52;;;;;;;15.64;100.00;100474.13;10454754;28;20025;-71
2024/04/04 14:44:38;;;;;;;44.25;10.82;;;;;;;16.12;100.00;100483.84;10453978;28;20032;-71
2024/04/04 14:49:38;;;;;;;39.28;12.02;;;;;;;15.80;100.00;100484.31;10477526;28;20049;-70
2024/04/04 14:54:39;;;;;;;35.72;12.00;;;;;;;15.60;100.00;100486.56;10463386;28;20041;-71
2024/04/04 14:59:39;;;;;;;34.50;13.25;;;;;;;15.10;100.00;100503.50;10463510;28;20047;-72
2024/04/04 15:04:39;;;;;;;50.53;12.88;;;;;;;14.99;100.00;100510.59;10463181;28;20476;-71
2024/04/04 15:09:42;;;;;;;37.05;11.93;;;;;;;15.03;100.00;100508.25;10460844;28;20028;-70
2024/04/04 15:14:42;;;;;;;40.65;12.85;;;;;;;15.17;100.00;100511.56;10443926;28;20491;-69
2024/04/04 15:19:42;;;;;;;30.00;11.38;;;;;;;14.97;100.00;100512.72;10476665;28;20053;-71
2024/04/04 15:24:43;;;;;;;41.60;12.07;;;;;;;14.60;100.00;100526.53;10460964;28;20072;-70
2024/04/04 15:29:43;;;;;;;48.20;12.98;;;;;;;14.63;100.00;100520.63;10460490;28;20033;-71
2024/04/04 15:34:44;;;;;;;35.53;11.98;;;;;;;14.83;100.00;100530.38;10460539;28;20032;-70
2024/04/04 15:39:44;;;;;;;28.52;11.10;;;;;;;14.81;100.00;100516.97;10458238;28;20033;-71
2024/04/04 15:44:44;;;;;;;55.30;12.52;;;;;;;14.77;100.00;100517.66;10460022;28;20116;-69
2024/04/04 15:49:46;;;;;;;40.35;12.57;;;;;;;14.72;100.00;100537.47;10460477;28;20052;-71
2024/04/04 15:54:46;;;;;;;32.28;10.63;;;;;;;14.70;100.00;100536.03;10458426;28;20087;-71
2024/04/04 15:59:47;;;;;;;26.98;11.60;;;;;;;14.53;100.00;100539.44;10459905;28;20487;-70
2024/04/04 16:04:48;;;;;;;41.47;10.93;;;;;;;14.47;100.00;100553.13;10459802;28;20119;-70
2024/04/04 16:09:49;;;;;;;31.95;10.63;;;;;;;14.34;100.00;100562.31;10459106;28;20029;-69
2024/04/04 16:14:49;;;;;;;37.47;12.25;;;;;;;14.10;100.00;100583.13;10457878;28;20350;-70
2024/04/04 16:19:50;;;;;;;36.67;11.13;;;;;;;14.23;100.00;100587.59;10459330;28;20056;-71
2024/04/04 16:24:51;;;;;;;38.70;12.02;;;;;;;14.17;100.00;100592.91;10458240;28;20033;-72
2024/04/04 16:29:51;;;;;;;35.10;12.73;;;;;;;14.17;100.00;100594.81;10473526;28;20476;-70
2024/04/04 16:34:52;;;;;;;29.20;10.60;;;;;;;13.95;100.00;100606.16;10458444;28;20050;-70
2024/04/04 16:39:52;;;;;;;47.25;12.77;;;;;;;13.80;100.00;100613.03;10439979;28;20025;-70
2024/04/04 16:44:52;;;;;;;42.92;12.57;;;;;;;13.64;100.00;100615.28;10457880;28;20367;-70
2024/04/04 16:49:53;;;;;;;36.58;12.05;;;;;;;13.51;100.00;100620.03;10456800;28;20048;-70
2024/04/04 16:54:53;;;;;;;38.28;12.57;;;;;;;13.28;100.00;100626.09;10472883;28;20136;-70
2024/04/04 16:59:54;;;;;;;43.88;12.73;;;;;;;13.17;100.00;100642.00;10457238;28;20036;-74
2024/04/04 17:04:54;;;;;;;37.40;11.68;;;;;;;12.93;100.00;100638.22;10457822;28;20337;-71
2024/04/04 17:09:55;;;;;;;55.22;16.25;;;;;;;12.97;100.00;100644.06;10454678;28;20021;-70
2024/04/04 17:14:55;;;;;;;39.55;14.45;;;;;;;12.93;100.00;100651.00;10457053;28;20116;-71
2024/04/04 17:19:56;;;;;;;52.67;15.48;;;;;;;13.06;100.00;100642.75;10456275;28;20049;-71
2024/04/04 17:24:57;;;;;;;34.20;11.70;;;;;;;13.04;100.00;100666.56;10455190;28;20041;-70
2024/04/04 17:29:57;;;;;;;41.33;10.70;;;;;;;12.99;100.00;100669.97;10455980;28;20081;-70
2024/04/04 17:34:58;;;;;;;30.17;9.85;;;;;;;13.08;100.00;100659.66;10455559;28;20460;-71
2024/04/04 17:39:58;;;;;;;42.40;12.95;;;;;;;12.97;100.00;100666.63;10456040;28;20029;-72
2024/04/04 17:44:58;;;;;;;59.03;12.43;;;;;;;12.86;100.00;100690.94;10455824;28;20059;-72
2024/04/04 17:49:59;;;;;;;53.95;12.25;;;;;;;12.82;100.00;100681.56;10470253;28;20059;-72
2024/04/04 17:54:59;;;;;;;49.85;11.88;;;;;;;12.78;100.00;100698.31;10455056;28;20040;-73
2024/04/04 18:00:00;;;;;;;47.35;12.30;;;;;;;12.71;100.00;100704.81;10456450;28;20167;-70
2024/04/04 18:05:00;;;;;;;42.30;12.90;;;;;;;12.56;100.00;100705.09;10436889;28;20501;-71
2024/04/04 18:10:03;;;;;;;47.05;14.45;;;;;;;12.59;100.00;100711.97;10455934;28;20037;-70
2024/04/04 18:15:04;;;;;;;52.92;12.82;;;;;;;12.56;100.00;100724.09;10454409;28;20083;-71
2024/04/04 18:20:05;;;;;;;29.35;11.13;;;;;;;12.60;100.00;100733.47;10457478;28;20144;-71
2024/04/04 18:25:05;;;;;;;53.60;14.30;;;;;;;12.49;100.00;100723.31;10462912;28;20033;-71
2024/04/04 18:30:08;;;;;;;43.30;12.50;;;;;;;12.46;100.00;100724.56;10463410;28;20025;-71
2024/04/04 18:35:09;;;;;;;34.88;11.13;;;;;;;12.40;100.00;100730.84;10463128;28;20033;-70
2024/04/04 18:40:09;;;;;;;47.55;12.13;;;;;;;12.43;100.00;100737.75;10462478;28;20045;-71
2024/04/04 18:45:11;;;;;;;37.90;12.45;;;;;;;12.27;100.00;100723.56;10463394;28;20029;-73
2024/04/04 18:50:11;;;;;;;48.47;10.73;;;;;;;12.17;100.00;100728.63;10462615;28;20064;-72
2024/04/04 18:55:12;;;;;;;39.35;9.98;;;;;;;12.00;100.00;100730.94;10464286;28;20446;-71
2024/04/04 19:00:12;;;;;;;20.75;7.95;;;;;;;12.01;100.00;100745.34;10461115;28;20041;-71
2024/04/04 19:05:13;;;;;;;41.90;9.82;;;;;;;11.90;100.00;100740.53;10462208;28;20028;-71
2024/04/04 19:10:13;;;;;;;54.58;12.43;;;;;;;11.95;100.00;100751.63;10460265;28;20080;-71
2024/04/04 19:15:14;;;;;;;31.73;10.43;;;;;;;12.16;100.00;100753.28;10460763;28;20036;-73
2024/04/04 19:20:20;;;;;;;29.83;9.32;;;;;;;12.22;100.00;100755.97;10461953;28;20056;-71
2024/04/04 19:25:20;;;;;;;25.27;9.27;;;;;;;12.09;100.00;100750.53;10462564;28;20033;-71
2024/04/04 19:30:21;;;;;;;29.48;9.73;;;;;;;12.07;100.00;100760.78;10461881;28;20033;-72
2024/04/04 19:35:21;;;;;;;30.77;8.48;;;;;;;12.04;100.00;100759.34;10442703;28;20064;-73
2024/04/04 19:40:21;;;;;;;29.00;7.80;;;;;;;11.93;100.00;100773.53;10479902;28;20037;-72
2024/04/04 19:45:22;;;;;;;41.13;8.75;;;;;;;11.94;100.00;100769.78;10464391;28;20036;-71
2024/04/04 19:50:22;;;;;;;23.17;8.35;;;;;;;11.90;100.00;100770.41;10462162;28;20456;-72
2024/04/04 19:55:24;;;;;;;28.50;8.10;;;;;;;12.00;100.00;100770.84;10461245;28;20270;-72
2024/04/04 20:00:24;;;;;;;20.88;8.18;;;;;;;11.95;100.00;100776.88;10460348;28;20029;-72
2024/04/04 20:05:25;;;;;;;21.10;8.57;;;;;;;11.81;100.00;100776.03;10458767;28;20036;-72
2024/04/04 20:10:25;;;;;;;14.43;7.10;;;;;;;11.89;100.00;100766.03;10458684;28;20059;-71
2024/04/04 20:15:26;;;;;;;24.73;7.25;;;;;;;11.90;100.00;100775.81;10462832;28;20105;-72
2024/04/04 20:20:26;;;;;;;27.25;6.88;;;;;;;11.93;100.00;100784.38;10465804;28;20089;-73
2024/04/04 20:25:26;;;;;;;35.60;8.15;;;;;;;11.91;100.00;100791.09;10471356;28;20025;-71
2024/04/04 20:30:27;;;;;;;31.58;8.77;;;;;;;11.91;100.00;100785.66;10470863;28;20093;-73
2024/04/04 20:35:27;;;;;;;23.17;6.35;;;;;;;11.94;100.00;100799.63;10463801;28;20033;-72
2024/04/04 20:40:28;;;;;;;46.45;12.68;;;;;;;11.98;100.00;100805.47;10462806;28;20060;-71
2024/04/04 20:45:28;;;;;;;29.48;6.22;;;;;;;11.99;100.00;100801.72;10464408;28;20039;-71
2024/04/04 20:50:29;;;;;;;16.70;6.72;;;;;;;11.85;100.00;100799.00;10464911;28;20032;-73
2024/04/04 20:55:30;;;;;;;27.77;7.00;;;;;;;11.70;100.00;100803.75;10470128;28;20052;-70
2024/04/04 21:00:30;;;;;;;22.35;7.07;;;;;;;11.63;100.00;100819.19;10472767;28;20036;-71
2024/04/04 21:05:31;;;;;;;20.75;7.40;;;;;;;11.68;100.00;100811.28;10469626;28;20530;-71
2024/04/04 21:10:33;;;;;;;26.23;8.27;;;;;;;11.60;100.00;100820.44;10466313;28;20032;-72
2024/04/04 21:15:34;;;;;;;23.92;7.18;;;;;;;11.62;100.00;100812.94;10466894;28;20422;-71
2024/04/04 21:20:34;;;;;;;22.45;7.93;;;;;;;11.48;100.00;100811.22;10467889;28;20132;-70
2024/04/04 21:25:35;;;;;;;19.48;6.57;;;;;;;11.55;100.00;100805.81;10462544;28;20040;-71
2024/04/04 21:30:35;;;;;;;29.52;7.40;;;;;;;11.53;100.00;100816.88;10459291;28;20425;-70
2024/04/04 21:35:44;;;;;;;28.60;7.65;;;;;;;11.59;100.00;100810.63;10457214;28;20029;-71
2024/04/04 21:40:45;;;;;;;29.58;9.55;;;;;;;11.62;100.00;100822.94;10457317;28;20112;-72
2024/04/04 21:45:45;;;;;;;18.02;8.18;;;;;;;11.63;100.00;100820.03;10457905;28;20515;-69
2024/04/04 21:50:55;;;;;;;30.45;7.95;;;;;;;11.67;100.00;100815.00;10457288;28;20083;-69
2024/04/04 21:55:57;;;;;;;30.30;9.60;;;;;;;11.65;100.00;100819.84;10455412;28;20032;-71
2024/04/04 22:01:16;;;;;;;25.30;8.20;;;;;;;11.58;100.00;100817.13;10455314;28;20033;-72
2024/04/04 22:06:16;;;;;;;14.40;6.80;;;;;;;11.58;100.00;100814.41;10456615;28;20112;-71
2024/04/04 22:11:16;;;;;;;38.15;9.07;;;;;;;11.60;100.00;100831.28;10440751;28;20055;-71
2024/04/04 22:16:17;;;;;;;15.48;7.30;;;;;;;11.63;100.00;100833.59;10458212;28;20102;-73
2024/04/04 22:21:17;;;;;;;34.65;8.40;;;;;;;11.68;100.00;100843.84;10457170;28;20032;-71
2024/04/04 22:26:18;;;;;;;35.25;6.18;;;;;;;11.58;100.00;100843.38;10457383;28;20036;-71
2024/04/04 22:31:18;;;;;;;46.45;9.52;;;;;;;11.62;100.00;100836.50;10457786;28;20061;-72
2024/04/04 22:36:19;;;;;;;28.02;9.52;;;;;;;11.62;100.00;100847.38;10457365;28;20025;-71
2024/04/04 22:41:20;;;;;;;30.00;6.57;;;;;;;11.54;100.00;100851.09;10457047;28;20032;-71